AGGN/GZO METAR and TAF weather

Enter ICAO airport designator
Station Type Date Time Source
AGGN METAR UTC NOAA

Error!


Station Type Date Time Source
AGGN Decoded METAR UTC NOAA

Error!

Station Type Date Time Source
AGGN TAF 2019/04/06 00:10 UTC NOAA

TAF AGGN 062310Z 0700/0724 36005KT 9999 SCT019 PROB40 INTER 0700/0706 5000 TSSH BKN016 FEW017CB Q 1011 1009 1008 1010

Example: see airport list